createdAt,value
2023-02-28T00:00:40.830Z,1.95
2023-02-28T00:03:13.125Z,1.76
2023-02-28T00:05:42.896Z,1.77
2023-02-28T00:08:14.216Z,1.74
2023-02-28T00:10:43.929Z,1.77
2023-02-28T00:13:14.327Z,1.49
2023-02-28T00:15:44.028Z,1.70
2023-02-28T00:18:16.283Z,1.75
2023-02-28T00:20:46.012Z,1.54
2023-02-28T00:23:15.664Z,1.66
2023-02-28T00:25:45.406Z,1.50
2023-02-28T00:28:15.076Z,1.13
2023-02-28T00:30:44.739Z,1.32
2023-02-28T00:33:17.077Z,1.33
2023-02-28T00:35:47.519Z,0.52
2023-02-28T00:38:17.577Z,1.15
2023-02-28T00:40:47.734Z,0.59
2023-02-28T00:43:17.417Z,0.24
2023-02-28T00:45:48.280Z,0.59
2023-02-28T00:48:20.587Z,0.93
2023-02-28T00:50:52.340Z,1.18
2023-02-28T00:53:22.006Z,1.11
2023-02-28T00:55:52.595Z,1.42
2023-02-28T00:58:22.313Z,1.40
2023-02-28T01:00:52.369Z,1.52
2023-02-28T01:03:26.203Z,1.40
2023-02-28T01:05:56.974Z,1.52
2023-02-28T01:08:27.126Z,1.19
2023-02-28T01:10:56.970Z,1.39
2023-02-28T01:13:27.289Z,1.43
2023-02-28T01:15:59.359Z,0.79
2023-02-28T01:18:32.443Z,1.20
2023-02-28T01:21:02.210Z,1.49
2023-02-28T01:23:31.850Z,1.25
2023-02-28T01:26:01.598Z,1.19
2023-02-28T01:28:31.475Z,0.79
2023-02-28T01:31:01.398Z,1.08
2023-02-28T01:33:34.124Z,1.05
2023-02-28T01:36:04.167Z,0.73
2023-02-28T01:38:34.280Z,0.99
2023-02-28T01:41:04.169Z,0.63
2023-02-28T01:43:36.040Z,0.97
2023-02-28T01:46:05.815Z,0.63
2023-02-28T01:48:41.949Z,0.83
2023-02-28T01:51:16.791Z,0.98
2023-02-28T01:53:49.772Z,0.63
2023-02-28T01:56:24.129Z,0.87
2023-02-28T01:58:54.830Z,0.83
2023-02-28T02:01:29.865Z,0.18
2023-02-28T02:04:06.200Z,1.06
2023-02-28T02:06:42.033Z,1.23
2023-02-28T02:09:13.637Z,1.05
2023-02-28T02:11:45.939Z,1.32
2023-02-28T02:14:45.423Z,1.36
2023-02-28T02:17:25.215Z,1.12
2023-02-28T02:20:22.891Z,1.19
2023-02-28T02:23:13.301Z,1.41
2023-02-28T02:25:47.333Z,0.95
2023-02-28T02:28:48.221Z,1.39
2023-02-28T02:31:32.615Z,1.20
2023-02-28T02:34:31.980Z,1.12
2023-02-28T02:37:11.753Z,1.32
2023-02-28T02:39:49.362Z,1.34
2023-02-28T02:42:25.751Z,1.36
2023-02-28T02:45:02.003Z,0.97
2023-02-28T02:47:34.933Z,0.83
2023-02-28T02:50:12.561Z,0.61
2023-02-28T02:52:47.159Z,0.75
2023-02-28T02:55:18.571Z,0.72
2023-02-28T02:57:52.505Z,0.72
2023-02-28T03:00:27.349Z,0.73
2023-02-28T03:02:59.792Z,0.67
2023-02-28T03:05:37.953Z,0.80
2023-02-28T03:08:08.149Z,0.20
2023-02-28T03:10:40.683Z,0.60
2023-02-28T03:13:46.489Z,0.69
2023-02-28T03:16:32.453Z,0.80
2023-02-28T03:19:10.714Z,0.71
2023-02-28T03:21:48.025Z,0.53
2023-02-28T03:24:26.330Z,-0.17
2023-02-28T03:27:02.596Z,0.35
2023-02-28T03:29:38.648Z,0.65
2023-02-28T03:32:18.414Z,0.27
2023-02-28T03:34:54.690Z,0.41
2023-02-28T03:37:30.762Z,0.06
2023-02-28T03:40:07.439Z,0.26
2023-02-28T03:42:40.517Z,0.17
2023-02-28T03:45:17.264Z,0.32
2023-02-28T03:47:53.088Z,-0.02
2023-02-28T03:50:26.673Z,-0.14
2023-02-28T03:53:05.962Z,0.14
2023-02-28T03:55:42.286Z,0.02
2023-02-28T03:58:19.654Z,0.11
2023-02-28T04:00:53.133Z,0.27
2023-02-28T04:03:22.785Z,0.11
2023-02-28T04:05:55.789Z,0.09
2023-02-28T04:08:28.099Z,0.18
2023-02-28T04:11:04.449Z,0.20
2023-02-28T04:13:34.159Z,-0.30
2023-02-28T04:16:18.719Z,0.17
2023-02-28T04:18:51.377Z,0.12
2023-02-28T04:21:23.297Z,-0.14
2023-02-28T04:23:55.550Z,0.14
2023-02-28T04:26:25.312Z,0.12
2023-02-28T04:28:54.979Z,0.06
2023-02-28T04:31:24.726Z,-0.03
2023-02-28T04:33:54.496Z,-0.03
2023-02-28T04:36:24.359Z,-0.43
2023-02-28T04:38:56.844Z,-0.24
2023-02-28T04:41:28.932Z,-0.36
2023-02-28T04:43:59.923Z,-0.68
2023-02-28T04:46:29.538Z,-0.69
2023-02-28T04:48:59.225Z,-0.24
2023-02-28T04:51:29.120Z,-0.13
2023-02-28T04:54:01.730Z,-0.11
2023-02-28T04:56:31.371Z,-0.28
2023-02-28T04:59:01.288Z,-0.18
2023-02-28T05:01:33.558Z,-0.17
2023-02-28T05:04:05.621Z,-0.42
2023-02-28T05:06:36.981Z,-0.29
2023-02-28T05:09:09.363Z,-0.44
2023-02-28T05:11:40.169Z,-0.48
2023-02-28T05:14:15.059Z,-0.94
2023-02-28T05:16:45.369Z,-0.83
2023-02-28T05:19:15.079Z,-0.46
2023-02-28T05:21:52.114Z,-0.13
2023-02-28T05:24:26.370Z,-0.80
2023-02-28T05:26:57.417Z,-0.41
2023-02-28T05:29:27.120Z,-0.39
2023-02-28T05:31:56.929Z,-1.42
2023-02-28T05:34:26.725Z,-0.98
2023-02-28T05:36:56.430Z,-0.66
2023-02-28T05:39:28.709Z,-0.90
2023-02-28T05:41:58.408Z,-0.53
2023-02-28T05:44:28.374Z,-0.39
2023-02-28T05:46:58.149Z,-0.60
2023-02-28T05:49:27.926Z,-0.65
2023-02-28T05:51:57.733Z,-0.72
2023-02-28T05:54:30.022Z,-1.00
2023-02-28T05:56:59.744Z,-0.71
2023-02-28T05:59:29.459Z,-1.40
2023-02-28T06:01:59.256Z,-0.88
2023-02-28T06:04:32.142Z,-0.66
2023-02-28T06:07:02.796Z,-1.07
2023-02-28T06:09:35.116Z,-1.32
2023-02-28T06:12:08.234Z,-0.79
2023-02-28T06:14:38.532Z,-0.91
2023-02-28T06:17:08.277Z,-1.60
2023-02-28T06:19:39.764Z,-0.99
2023-02-28T06:22:09.437Z,-0.84
2023-02-28T06:24:41.673Z,-0.73
2023-02-28T06:27:11.418Z,-1.00
2023-02-28T06:29:44.035Z,-0.85
2023-02-28T06:32:13.767Z,-0.74
2023-02-28T06:34:43.544Z,-0.71
2023-02-28T06:37:13.161Z,-1.10
2023-02-28T06:39:45.615Z,-0.70
2023-02-28T06:42:15.346Z,-0.81
2023-02-28T06:44:45.033Z,-0.89
2023-02-28T06:47:14.757Z,-1.09
2023-02-28T06:49:46.228Z,-0.87
2023-02-28T06:52:16.020Z,-1.08
2023-02-28T06:54:48.319Z,-1.39
2023-02-28T06:57:18.077Z,-0.68
2023-02-28T06:59:47.703Z,-0.72
2023-02-28T07:02:17.317Z,-0.62
2023-02-28T07:04:47.376Z,-0.60
2023-02-28T07:07:17.034Z,-0.36
2023-02-28T07:09:49.343Z,-0.41
2023-02-28T07:12:19.146Z,-0.61
2023-02-28T07:14:48.817Z,-1.68
2023-02-28T07:17:18.548Z,-0.58
2023-02-28T07:19:50.428Z,-0.34
2023-02-28T07:22:20.141Z,-0.73
2023-02-28T07:24:52.789Z,-0.04
2023-02-28T07:27:27.249Z,-0.71
2023-02-28T07:29:57.346Z,-0.86
2023-02-28T07:32:27.187Z,0.06
2023-02-28T07:34:57.017Z,-0.13
2023-02-28T07:37:26.661Z,0.23
2023-02-28T07:39:58.958Z,0.23
2023-02-28T07:42:28.661Z,0.40
2023-02-28T07:45:03.842Z,0.52
2023-02-28T07:47:34.311Z,-0.49
2023-02-28T07:50:08.863Z,0.24
2023-02-28T07:52:39.628Z,0.32
2023-02-28T07:55:14.710Z,-0.08
2023-02-28T07:57:44.764Z,0.63
2023-02-28T08:00:16.289Z,0.57
2023-02-28T08:02:46.115Z,0.13
2023-02-28T08:05:21.470Z,0.77
2023-02-28T08:07:54.399Z,0.62
2023-02-28T08:10:27.104Z,0.39
2023-02-28T08:12:56.829Z,-0.10
2023-02-28T08:15:26.540Z,0.00
2023-02-28T08:17:57.302Z,0.38
2023-02-28T08:20:27.392Z,0.35
2023-02-28T08:22:57.242Z,1.12
2023-02-28T08:25:29.615Z,0.14
2023-02-28T08:27:59.435Z,1.17
2023-02-28T08:30:31.796Z,0.76
2023-02-28T08:33:02.863Z,1.27
2023-02-28T08:35:32.643Z,0.89
2023-02-28T08:38:02.364Z,1.42
2023-02-28T08:40:34.656Z,1.33
2023-02-28T08:43:04.398Z,1.38
2023-02-28T08:45:34.359Z,0.82
2023-02-28T08:48:04.090Z,1.54
2023-02-28T08:50:33.740Z,0.92
2023-02-28T08:53:03.593Z,1.42
2023-02-28T08:55:35.956Z,1.90
2023-02-28T08:58:05.656Z,1.38
2023-02-28T09:00:38.407Z,1.78
2023-02-28T09:03:10.670Z,1.92
2023-02-28T09:05:40.359Z,1.87
2023-02-28T09:08:10.117Z,2.07
2023-02-28T09:10:42.415Z,2.20
2023-02-28T09:13:12.100Z,1.96
2023-02-28T09:15:41.867Z,2.47
2023-02-28T09:18:11.802Z,2.30
2023-02-28T09:20:42.587Z,2.72
2023-02-28T09:23:13.145Z,3.01
2023-02-28T09:25:50.184Z,3.08
2023-02-28T09:28:20.116Z,3.33
2023-02-28T09:30:51.786Z,3.33
2023-02-28T09:33:22.744Z,2.71
2023-02-28T09:35:53.343Z,4.07
2023-02-28T09:38:23.119Z,3.51
2023-02-28T09:40:58.103Z,3.69
2023-02-28T09:43:30.737Z,3.39
2023-02-28T09:46:06.694Z,3.44
2023-02-28T09:48:41.325Z,3.73
2023-02-28T09:51:31.983Z,2.83
2023-02-28T09:54:02.475Z,3.72
2023-02-28T09:56:39.787Z,3.66
2023-02-28T09:59:17.875Z,3.53
2023-02-28T10:01:56.990Z,3.28
2023-02-28T10:04:42.691Z,3.22
2023-02-28T10:07:26.422Z,2.77
2023-02-28T10:10:01.478Z,3.85
2023-02-28T10:12:35.798Z,3.98
2023-02-28T10:15:07.694Z,4.09
2023-02-28T10:17:55.627Z,3.89
2023-02-28T10:20:35.814Z,3.92
2023-02-28T10:23:13.566Z,4.38
2023-02-28T10:25:50.596Z,4.09
2023-02-28T10:28:26.857Z,3.75
2023-02-28T10:31:01.430Z,4.19
2023-02-28T10:33:35.801Z,4.61
2023-02-28T10:36:12.669Z,3.95
2023-02-28T10:38:57.977Z,4.57
2023-02-28T10:41:39.436Z,4.70
2023-02-28T10:44:25.571Z,4.65
2023-02-28T10:46:55.702Z,4.20
2023-02-28T10:49:28.081Z,4.78
2023-02-28T10:52:00.045Z,4.53
2023-02-28T10:54:38.893Z,4.05
2023-02-28T10:57:18.839Z,4.35
2023-02-28T10:59:56.118Z,4.64
2023-02-28T11:02:35.290Z,4.69
2023-02-28T11:05:08.354Z,4.66
2023-02-28T11:08:16.666Z,3.30
2023-02-28T11:10:51.057Z,5.10
2023-02-28T11:13:23.991Z,5.02
2023-02-28T11:15:59.141Z,4.75
2023-02-28T11:18:33.153Z,4.73
2023-02-28T11:21:05.768Z,3.95
2023-02-28T11:23:40.840Z,4.37
2023-02-28T11:26:12.387Z,4.62
2023-02-28T11:28:44.229Z,4.75
2023-02-28T11:31:23.574Z,4.58
2023-02-28T11:33:56.814Z,5.07
2023-02-28T11:36:28.595Z,3.90
2023-02-28T11:39:02.691Z,5.26
2023-02-28T11:41:46.760Z,4.71
2023-02-28T11:44:28.716Z,5.42
2023-02-28T11:47:07.898Z,4.45
2023-02-28T11:49:47.823Z,5.39
2023-02-28T11:52:25.050Z,4.87
2023-02-28T11:55:12.588Z,5.43
2023-02-28T11:58:12.263Z,5.89
2023-02-28T12:00:51.423Z,5.81
2023-02-28T12:03:52.981Z,5.74
2023-02-28T12:06:30.723Z,5.53
2023-02-28T12:09:08.283Z,5.78
2023-02-28T12:11:49.377Z,6.09
2023-02-28T12:14:33.409Z,5.93
2023-02-28T12:17:09.326Z,5.91
2023-02-28T12:19:52.448Z,5.49
2023-02-28T12:22:43.306Z,5.74
2023-02-28T12:25:44.617Z,5.69
2023-02-28T12:28:18.280Z,5.73
2023-02-28T12:30:56.929Z,5.89
2023-02-28T12:33:31.953Z,5.89
2023-02-28T12:36:12.140Z,6.17
2023-02-28T12:38:47.819Z,5.97
2023-02-28T12:41:23.089Z,6.00
2023-02-28T12:43:59.953Z,6.01
2023-02-28T12:46:36.487Z,5.94
2023-02-28T22:07:02.800Z,-1.21
